sensor_id;sensor_type;location;lat;lon;timestamp;temperature;humidity
19947;DHT22;10135;50.702;7.276;2022-07-21T00:01:27;24.90;52.10
19947;DHT22;10135;50.702;7.276;2022-07-21T00:03:27;24.90;52.20
19947;DHT22;10135;50.702;7.276;2022-07-21T00:05:28;24.80;52.10
19947;DHT22;10135;50.702;7.276;2022-07-21T00:07:29;24.80;52.20
19947;DHT22;10135;50.702;7.276;2022-07-21T00:09:29;24.70;52.40
19947;DHT22;10135;50.702;7.276;2022-07-21T00:11:30;24.70;52.50
19947;DHT22;10135;50.702;7.276;2022-07-21T00:13:31;24.60;52.70
19947;DHT22;10135;50.702;7.276;2022-07-21T00:15:32;24.60;52.90
19947;DHT22;10135;50.702;7.276;2022-07-21T00:17:32;24.50;53.20
19947;DHT22;10135;50.702;7.276;2022-07-21T00:19:34;24.50;53.40
19947;DHT22;10135;50.702;7.276;2022-07-21T00:21:35;24.40;53.40
19947;DHT22;10135;50.702;7.276;2022-07-21T00:23:36;24.40;53.50
19947;DHT22;10135;50.702;7.276;2022-07-21T00:25:37;24.30;53.70
19947;DHT22;10135;50.702;7.276;2022-07-21T00:27:38;24.30;53.80
19947;DHT22;10135;50.702;7.276;2022-07-21T00:29:38;24.30;54.00
19947;DHT22;10135;50.702;7.276;2022-07-21T00:31:39;24.20;54.00
19947;DHT22;10135;50.702;7.276;2022-07-21T00:33:40;24.20;54.00
19947;DHT22;10135;50.702;7.276;2022-07-21T00:35:40;24.20;54.10
19947;DHT22;10135;50.702;7.276;2022-07-21T00:37:42;24.20;54.30
19947;DHT22;10135;50.702;7.276;2022-07-21T00:39:43;24.10;54.40
19947;DHT22;10135;50.702;7.276;2022-07-21T00:41:44;24.10;54.40
19947;DHT22;10135;50.702;7.276;2022-07-21T00:43:45;24.00;54.50
19947;DHT22;10135;50.702;7.276;2022-07-21T00:45:45;24.00;54.60
19947;DHT22;10135;50.702;7.276;2022-07-21T00:47:46;24.00;54.80
19947;DHT22;10135;50.702;7.276;2022-07-21T00:49:47;23.90;54.80
19947;DHT22;10135;50.702;7.276;2022-07-21T00:51:49;23.90;54.90
19947;DHT22;10135;50.702;7.276;2022-07-21T00:53:50;23.90;55.00
19947;DHT22;10135;50.702;7.276;2022-07-21T00:55:51;23.90;55.20
19947;DHT22;10135;50.702;7.276;2022-07-21T00:57:52;23.90;55.30
19947;DHT22;10135;50.702;7.276;2022-07-21T00:59:54;23.80;55.30
19947;DHT22;10135;50.702;7.276;2022-07-21T01:01:55;23.80;55.30
19947;DHT22;10135;50.702;7.276;2022-07-21T01:03:55;23.80;55.40
19947;DHT22;10135;50.702;7.276;2022-07-21T01:05:57;23.80;55.60
19947;DHT22;10135;50.702;7.276;2022-07-21T01:07:59;23.80;55.70
19947;DHT22;10135;50.702;7.276;2022-07-21T01:10:03;23.80;55.60
19947;DHT22;10135;50.702;7.276;2022-07-21T01:12:04;23.80;55.70
19947;DHT22;10135;50.702;7.276;2022-07-21T01:14:05;23.80;55.90
19947;DHT22;10135;50.702;7.276;2022-07-21T01:16:07;23.70;56.00
19947;DHT22;10135;50.702;7.276;2022-07-21T01:18:09;23.80;56.20
19947;DHT22;10135;50.702;7.276;2022-07-21T01:20:13;23.70;56.20
19947;DHT22;10135;50.702;7.276;2022-07-21T01:22:15;23.70;56.30
19947;DHT22;10135;50.702;7.276;2022-07-21T01:24:16;23.70;56.10
19947;DHT22;10135;50.702;7.276;2022-07-21T01:26:16;23.70;56.20
19947;DHT22;10135;50.702;7.276;2022-07-21T01:28:17;23.60;56.20
19947;DHT22;10135;50.702;7.276;2022-07-21T01:30:18;23.60;56.30
19947;DHT22;10135;50.702;7.276;2022-07-21T01:32:19;23.60;56.40
19947;DHT22;10135;50.702;7.276;2022-07-21T01:34:20;23.60;56.50
19947;DHT22;10135;50.702;7.276;2022-07-21T01:36:20;23.60;56.50
19947;DHT22;10135;50.702;7.276;2022-07-21T01:38:21;23.60;56.60
19947;DHT22;10135;50.702;7.276;2022-07-21T01:40:40;23.60;56.60
19947;DHT22;10135;50.702;7.276;2022-07-21T01:42:59;23.50;56.70
19947;DHT22;10135;50.702;7.276;2022-07-21T01:45:00;23.50;56.80
19947;DHT22;10135;50.702;7.276;2022-07-21T01:47:01;23.50;57.00
19947;DHT22;10135;50.702;7.276;2022-07-21T01:49:02;23.50;57.10
19947;DHT22;10135;50.702;7.276;2022-07-21T01:51:03;23.40;57.10
19947;DHT22;10135;50.702;7.276;2022-07-21T01:53:04;23.50;57.10
19947;DHT22;10135;50.702;7.276;2022-07-21T01:55:05;23.40;57.10
19947;DHT22;10135;50.702;7.276;2022-07-21T01:57:07;23.40;57.10
19947;DHT22;10135;50.702;7.276;2022-07-21T01:59:07;23.40;57.20
19947;DHT22;10135;50.702;7.276;2022-07-21T02:01:08;23.40;57.20
19947;DHT22;10135;50.702;7.276;2022-07-21T02:03:09;23.40;57.40
19947;DHT22;10135;50.702;7.276;2022-07-21T02:05:09;23.40;57.40
19947;DHT22;10135;50.702;7.276;2022-07-21T02:07:10;23.30;57.40
19947;DHT22;10135;50.702;7.276;2022-07-21T02:09:11;23.30;57.50
19947;DHT22;10135;50.702;7.276;2022-07-21T02:11:13;23.30;57.50
19947;DHT22;10135;50.702;7.276;2022-07-21T02:13:14;23.20;57.70
19947;DHT22;10135;50.702;7.276;2022-07-21T02:15:15;23.20;57.70
19947;DHT22;10135;50.702;7.276;2022-07-21T02:17:16;23.20;57.70
19947;DHT22;10135;50.702;7.276;2022-07-21T02:19:17;23.20;57.80
19947;DHT22;10135;50.702;7.276;2022-07-21T02:21:18;23.20;58.00
19947;DHT22;10135;50.702;7.276;2022-07-21T02:23:19;23.20;58.10
19947;DHT22;10135;50.702;7.276;2022-07-21T02:25:21;23.20;58.20
19947;DHT22;10135;50.702;7.276;2022-07-21T02:27:21;23.20;58.20
19947;DHT22;10135;50.702;7.276;2022-07-21T02:29:22;23.20;58.20
19947;DHT22;10135;50.702;7.276;2022-07-21T02:31:23;23.20;58.20
19947;DHT22;10135;50.702;7.276;2022-07-21T02:33:24;23.20;58.20
19947;DHT22;10135;50.702;7.276;2022-07-21T02:35:24;23.20;58.20
19947;DHT22;10135;50.702;7.276;2022-07-21T02:37:25;23.10;58.30
19947;DHT22;10135;50.702;7.276;2022-07-21T02:39:27;23.10;58.40
19947;DHT22;10135;50.702;7.276;2022-07-21T02:41:28;23.10;58.50
19947;DHT22;10135;50.702;7.276;2022-07-21T02:43:29;23.10;58.50
19947;DHT22;10135;50.702;7.276;2022-07-21T02:45:30;23.10;58.60
19947;DHT22;10135;50.702;7.276;2022-07-21T02:47:30;23.10;58.60
19947;DHT22;10135;50.702;7.276;2022-07-21T02:49:31;23.10;58.70
19947;DHT22;10135;50.702;7.276;2022-07-21T02:51:32;23.10;58.70
19947;DHT22;10135;50.702;7.276;2022-07-21T02:53:32;23.10;58.80
19947;DHT22;10135;50.702;7.276;2022-07-21T02:55:33;23.00;58.80
19947;DHT22;10135;50.702;7.276;2022-07-21T02:57:35;23.10;59.00
19947;DHT22;10135;50.702;7.276;2022-07-21T02:59:35;23.00;59.00
19947;DHT22;10135;50.702;7.276;2022-07-21T03:01:36;23.00;59.00
19947;DHT22;10135;50.702;7.276;2022-07-21T03:03:37;23.00;59.10
19947;DHT22;10135;50.702;7.276;2022-07-21T03:05:38;23.00;59.10
19947;DHT22;10135;50.702;7.276;2022-07-21T03:07:39;23.00;59.20
19947;DHT22;10135;50.702;7.276;2022-07-21T03:09:39;23.00;59.30
19947;DHT22;10135;50.702;7.276;2022-07-21T03:11:40;23.00;59.40
19947;DHT22;10135;50.702;7.276;2022-07-21T03:13:40;23.00;59.30
19947;DHT22;10135;50.702;7.276;2022-07-21T03:15:41;23.00;59.30
19947;DHT22;10135;50.702;7.276;2022-07-21T03:17:42;23.00;59.30
19947;DHT22;10135;50.702;7.276;2022-07-21T03:19:43;23.00;59.40
19947;DHT22;10135;50.702;7.276;2022-07-21T03:21:43;23.00;59.50
19947;DHT22;10135;50.702;7.276;2022-07-21T03:23:44;23.00;59.50
19947;DHT22;10135;50.702;7.276;2022-07-21T03:25:47;23.00;59.60
19947;DHT22;10135;50.702;7.276;2022-07-21T03:27:48;22.90;59.50
19947;DHT22;10135;50.702;7.276;2022-07-21T03:29:50;23.00;59.70
19947;DHT22;10135;50.702;7.276;2022-07-21T03:31:50;23.00;59.80
19947;DHT22;10135;50.702;7.276;2022-07-21T03:33:51;23.00;59.80
19947;DHT22;10135;50.702;7.276;2022-07-21T03:35:52;22.90;59.70
19947;DHT22;10135;50.702;7.276;2022-07-21T03:37:57;22.90;59.60
19947;DHT22;10135;50.702;7.276;2022-07-21T03:39:59;22.90;60.10
19947;DHT22;10135;50.702;7.276;2022-07-21T03:42:00;22.90;59.70
19947;DHT22;10135;50.702;7.276;2022-07-21T03:44:01;22.90;59.80
19947;DHT22;10135;50.702;7.276;2022-07-21T03:46:01;22.90;59.90
19947;DHT22;10135;50.702;7.276;2022-07-21T03:48:04;22.90;59.90
19947;DHT22;10135;50.702;7.276;2022-07-21T03:50:07;22.90;60.10
19947;DHT22;10135;50.702;7.276;2022-07-21T03:52:08;22.90;59.90
19947;DHT22;10135;50.702;7.276;2022-07-21T03:54:09;22.90;59.90
19947;DHT22;10135;50.702;7.276;2022-07-21T03:56:09;22.90;59.90
19947;DHT22;10135;50.702;7.276;2022-07-21T03:58:11;22.80;59.90
19947;DHT22;10135;50.702;7.276;2022-07-21T04:00:16;22.80;60.10
19947;DHT22;10135;50.702;7.276;2022-07-21T04:02:19;22.80;60.20
19947;DHT22;10135;50.702;7.276;2022-07-21T04:04:20;22.80;60.00
19947;DHT22;10135;50.702;7.276;2022-07-21T04:06:21;22.80;60.00
19947;DHT22;10135;50.702;7.276;2022-07-21T04:08:21;22.80;60.00
19947;DHT22;10135;50.702;7.276;2022-07-21T04:10:25;22.80;60.10
19947;DHT22;10135;50.702;7.276;2022-07-21T04:12:28;22.70;60.10
19947;DHT22;10135;50.702;7.276;2022-07-21T04:14:29;22.70;60.10
19947;DHT22;10135;50.702;7.276;2022-07-21T04:16:29;22.70;60.10
19947;DHT22;10135;50.702;7.276;2022-07-21T04:18:30;22.60;60.10
19947;DHT22;10135;50.702;7.276;2022-07-21T04:20:31;22.60;60.20
19947;DHT22;10135;50.702;7.276;2022-07-21T04:22:32;22.60;60.20
19947;DHT22;10135;50.702;7.276;2022-07-21T04:24:33;22.60;60.40
19947;DHT22;10135;50.702;7.276;2022-07-21T04:26:34;22.50;60.40
19947;DHT22;10135;50.702;7.276;2022-07-21T04:28:34;22.50;60.40
19947;DHT22;10135;50.702;7.276;2022-07-21T04:30:35;22.50;60.40
19947;DHT22;10135;50.702;7.276;2022-07-21T04:32:36;22.50;61.30
19947;DHT22;10135;50.702;7.276;2022-07-21T04:34:37;22.50;60.70
19947;DHT22;10135;50.702;7.276;2022-07-21T04:36:38;22.40;60.70
19947;DHT22;10135;50.702;7.276;2022-07-21T04:38:38;22.40;60.80
19947;DHT22;10135;50.702;7.276;2022-07-21T04:40:39;22.40;60.80
19947;DHT22;10135;50.702;7.276;2022-07-21T04:42:40;22.40;60.90
19947;DHT22;10135;50.702;7.276;2022-07-21T04:44:41;22.40;61.00
19947;DHT22;10135;50.702;7.276;2022-07-21T04:46:42;22.50;61.10
19947;DHT22;10135;50.702;7.276;2022-07-21T04:48:42;22.60;61.20
19947;DHT22;10135;50.702;7.276;2022-07-21T04:50:43;22.60;61.10
19947;DHT22;10135;50.702;7.276;2022-07-21T04:52:44;22.60;61.10
19947;DHT22;10135;50.702;7.276;2022-07-21T04:54:45;22.70;61.10
19947;DHT22;10135;50.702;7.276;2022-07-21T04:56:46;22.70;61.00
19947;DHT22;10135;50.702;7.276;2022-07-21T04:58:46;22.60;61.00
19947;DHT22;10135;50.702;7.276;2022-07-21T05:00:47;22.60;61.00
19947;DHT22;10135;50.702;7.276;2022-07-21T05:02:49;22.60;61.00
19947;DHT22;10135;50.702;7.276;2022-07-21T05:04:52;22.60;61.00
19947;DHT22;10135;50.702;7.276;2022-07-21T05:06:52;22.60;61.10
19947;DHT22;10135;50.702;7.276;2022-07-21T05:08:54;22.60;61.20
19947;DHT22;10135;50.702;7.276;2022-07-21T05:10:54;22.60;61.30
19947;DHT22;10135;50.702;7.276;2022-07-21T05:12:55;22.60;61.30
19947;DHT22;10135;50.702;7.276;2022-07-21T05:14:56;22.60;61.60
19947;DHT22;10135;50.702;7.276;2022-07-21T05:16:56;22.60;61.50
19947;DHT22;10135;50.702;7.276;2022-07-21T05:18:57;22.60;61.50
19947;DHT22;10135;50.702;7.276;2022-07-21T05:20:58;22.60;61.60
19947;DHT22;10135;50.702;7.276;2022-07-21T05:22:58;22.70;61.60
19947;DHT22;10135;50.702;7.276;2022-07-21T05:24:59;22.70;61.60
19947;DHT22;10135;50.702;7.276;2022-07-21T05:27:00;22.70;61.60
19947;DHT22;10135;50.702;7.276;2022-07-21T05:29:00;22.70;61.70
19947;DHT22;10135;50.702;7.276;2022-07-21T05:31:01;22.70;61.80
19947;DHT22;10135;50.702;7.276;2022-07-21T05:33:02;22.70;61.80
19947;DHT22;10135;50.702;7.276;2022-07-21T05:35:03;22.70;61.90
19947;DHT22;10135;50.702;7.276;2022-07-21T05:37:08;22.70;62.00
19947;DHT22;10135;50.702;7.276;2022-07-21T05:39:09;22.80;62.10
19947;DHT22;10135;50.702;7.276;2022-07-21T05:41:10;22.80;62.20
19947;DHT22;10135;50.702;7.276;2022-07-21T05:43:10;22.80;62.10
19947;DHT22;10135;50.702;7.276;2022-07-21T05:45:11;22.80;62.20
19947;DHT22;10135;50.702;7.276;2022-07-21T05:47:12;22.80;62.10
19947;DHT22;10135;50.702;7.276;2022-07-21T05:49:13;22.80;62.00
19947;DHT22;10135;50.702;7.276;2022-07-21T05:51:13;22.80;62.00
19947;DHT22;10135;50.702;7.276;2022-07-21T05:53:14;22.80;62.00
19947;DHT22;10135;50.702;7.276;2022-07-21T05:55:15;22.80;62.00
19947;DHT22;10135;50.702;7.276;2022-07-21T05:57:16;22.80;62.00
19947;DHT22;10135;50.702;7.276;2022-07-21T05:59:18;22.80;62.20
19947;DHT22;10135;50.702;7.276;2022-07-21T06:01:19;22.80;62.20
19947;DHT22;10135;50.702;7.276;2022-07-21T06:03:19;22.80;62.90
19947;DHT22;10135;50.702;7.276;2022-07-21T06:05:20;22.80;62.20
19947;DHT22;10135;50.702;7.276;2022-07-21T06:07:21;22.80;62.30
19947;DHT22;10135;50.702;7.276;2022-07-21T06:09:21;22.90;62.40
19947;DHT22;10135;50.702;7.276;2022-07-21T06:11:22;22.90;62.40
19947;DHT22;10135;50.702;7.276;2022-07-21T06:13:23;22.90;62.40
19947;DHT22;10135;50.702;7.276;2022-07-21T06:15:24;22.90;62.40
19947;DHT22;10135;50.702;7.276;2022-07-21T06:17:24;22.90;62.40
19947;DHT22;10135;50.702;7.276;2022-07-21T06:19:25;22.90;62.40
19947;DHT22;10135;50.702;7.276;2022-07-21T06:21:26;22.90;62.40
19947;DHT22;10135;50.702;7.276;2022-07-21T06:23:27;22.80;62.40
19947;DHT22;10135;50.702;7.276;2022-07-21T06:25:28;22.80;62.50
19947;DHT22;10135;50.702;7.276;2022-07-21T06:27:28;22.80;62.50
19947;DHT22;10135;50.702;7.276;2022-07-21T06:29:29;22.80;62.60
19947;DHT22;10135;50.702;7.276;2022-07-21T06:31:30;22.80;62.60
19947;DHT22;10135;50.702;7.276;2022-07-21T06:33:31;22.80;62.60
19947;DHT22;10135;50.702;7.276;2022-07-21T06:35:31;22.80;62.60
19947;DHT22;10135;50.702;7.276;2022-07-21T06:37:32;22.80;62.70
19947;DHT22;10135;50.702;7.276;2022-07-21T06:39:33;22.80;62.80
19947;DHT22;10135;50.702;7.276;2022-07-21T06:41:33;22.80;62.70
19947;DHT22;10135;50.702;7.276;2022-07-21T06:43:34;22.70;62.60
19947;DHT22;10135;50.702;7.276;2022-07-21T06:45:34;22.70;62.70
19947;DHT22;10135;50.702;7.276;2022-07-21T06:47:35;22.70;62.90
19947;DHT22;10135;50.702;7.276;2022-07-21T06:49:36;22.70;63.00
19947;DHT22;10135;50.702;7.276;2022-07-21T06:51:36;22.70;63.00
19947;DHT22;10135;50.702;7.276;2022-07-21T06:53:37;22.70;63.10
19947;DHT22;10135;50.702;7.276;2022-07-21T06:55:38;22.70;63.10
19947;DHT22;10135;50.702;7.276;2022-07-21T06:57:38;22.80;63.10
19947;DHT22;10135;50.702;7.276;2022-07-21T06:59:39;22.70;63.00
19947;DHT22;10135;50.702;7.276;2022-07-21T07:01:40;22.80;63.10
19947;DHT22;10135;50.702;7.276;2022-07-21T07:03:40;22.80;63.20
19947;DHT22;10135;50.702;7.276;2022-07-21T07:05:43;22.80;63.90
19947;DHT22;10135;50.702;7.276;2022-07-21T07:07:45;22.80;63.50
19947;DHT22;10135;50.702;7.276;2022-07-21T07:09:48;22.80;63.50
19947;DHT22;10135;50.702;7.276;2022-07-21T07:11:49;22.80;63.60
19947;DHT22;10135;50.702;7.276;2022-07-21T07:13:52;22.90;63.90
19947;DHT22;10135;50.702;7.276;2022-07-21T07:15:53;22.90;64.00
19947;DHT22;10135;50.702;7.276;2022-07-21T07:17:54;22.90;64.00
19947;DHT22;10135;50.702;7.276;2022-07-21T07:19:55;23.00;64.10
19947;DHT22;10135;50.702;7.276;2022-07-21T07:21:56;23.10;64.10
19947;DHT22;10135;50.702;7.276;2022-07-21T07:23:58;23.10;64.10
19947;DHT22;10135;50.702;7.276;2022-07-21T07:25:59;23.20;64.00
19947;DHT22;10135;50.702;7.276;2022-07-21T07:27:59;23.20;63.90
19947;DHT22;10135;50.702;7.276;2022-07-21T07:30:03;23.30;64.00
19947;DHT22;10135;50.702;7.276;2022-07-21T07:32:04;23.40;64.10
19947;DHT22;10135;50.702;7.276;2022-07-21T07:34:05;23.40;64.10
19947;DHT22;10135;50.702;7.276;2022-07-21T07:36:07;23.40;64.00
19947;DHT22;10135;50.702;7.276;2022-07-21T07:38:14;23.50;64.00
19947;DHT22;10135;50.702;7.276;2022-07-21T07:40:17;23.50;63.90
19947;DHT22;10135;50.702;7.276;2022-07-21T07:42:20;23.60;63.80
19947;DHT22;10135;50.702;7.276;2022-07-21T07:44:21;23.60;63.70
19947;DHT22;10135;50.702;7.276;2022-07-21T07:46:22;23.60;63.50
19947;DHT22;10135;50.702;7.276;2022-07-21T07:48:22;23.60;63.50
19947;DHT22;10135;50.702;7.276;2022-07-21T07:50:23;23.70;63.60
19947;DHT22;10135;50.702;7.276;2022-07-21T07:52:24;23.70;63.60
19947;DHT22;10135;50.702;7.276;2022-07-21T07:54:25;23.70;63.50
19947;DHT22;10135;50.702;7.276;2022-07-21T07:56:26;23.70;63.50
19947;DHT22;10135;50.702;7.276;2022-07-21T07:58:26;23.70;63.50
19947;DHT22;10135;50.702;7.276;2022-07-21T08:00:27;23.70;63.60
19947;DHT22;10135;50.702;7.276;2022-07-21T08:02:28;23.70;63.70
19947;DHT22;10135;50.702;7.276;2022-07-21T08:04:28;23.80;63.90
19947;DHT22;10135;50.702;7.276;2022-07-21T08:06:29;23.90;64.10
19947;DHT22;10135;50.702;7.276;2022-07-21T08:08:30;24.00;64.20
19947;DHT22;10135;50.702;7.276;2022-07-21T08:10:31;24.10;64.30
19947;DHT22;10135;50.702;7.276;2022-07-21T08:12:32;24.30;64.40
19947;DHT22;10135;50.702;7.276;2022-07-21T08:14:33;24.50;64.20
19947;DHT22;10135;50.702;7.276;2022-07-21T08:16:34;24.60;64.40
19947;DHT22;10135;50.702;7.276;2022-07-21T08:18:35;24.70;63.20
19947;DHT22;10135;50.702;7.276;2022-07-21T08:20:36;24.80;63.10
19947;DHT22;10135;50.702;7.276;2022-07-21T08:22:37;24.80;62.80
19947;DHT22;10135;50.702;7.276;2022-07-21T08:24:38;24.80;62.60
19947;DHT22;10135;50.702;7.276;2022-07-21T08:26:39;24.80;62.60
19947;DHT22;10135;50.702;7.276;2022-07-21T08:28:39;24.80;62.60
19947;DHT22;10135;50.702;7.276;2022-07-21T08:30:40;24.70;62.40
19947;DHT22;10135;50.702;7.276;2022-07-21T08:32:42;24.70;62.40
19947;DHT22;10135;50.702;7.276;2022-07-21T08:34:43;24.70;62.20
19947;DHT22;10135;50.702;7.276;2022-07-21T08:36:44;24.70;62.30
19947;DHT22;10135;50.702;7.276;2022-07-21T08:38:45;24.60;62.40
19947;DHT22;10135;50.702;7.276;2022-07-21T08:40:46;24.60;63.20
19947;DHT22;10135;50.702;7.276;2022-07-21T08:42:47;24.60;62.60
19947;DHT22;10135;50.702;7.276;2022-07-21T08:44:48;24.60;62.50
19947;DHT22;10135;50.702;7.276;2022-07-21T08:46:50;24.60;62.50
19947;DHT22;10135;50.702;7.276;2022-07-21T08:48:51;24.60;62.50
19947;DHT22;10135;50.702;7.276;2022-07-21T08:50:52;24.60;62.50
19947;DHT22;10135;50.702;7.276;2022-07-21T08:52:53;24.60;62.30
19947;DHT22;10135;50.702;7.276;2022-07-21T08:54:56;24.60;62.40
19947;DHT22;10135;50.702;7.276;2022-07-21T08:56:57;24.60;63.10
19947;DHT22;10135;50.702;7.276;2022-07-21T08:58:57;24.60;62.30
19947;DHT22;10135;50.702;7.276;2022-07-21T09:00:58;24.70;62.20
19947;DHT22;10135;50.702;7.276;2022-07-21T09:03:28;24.70;62.20
19947;DHT22;10135;50.702;7.276;2022-07-21T09:05:29;24.80;62.10
19947;DHT22;10135;50.702;7.276;2022-07-21T09:07:50;24.80;62.00
19947;DHT22;10135;50.702;7.276;2022-07-21T09:10:00;24.80;61.80
19947;DHT22;10135;50.702;7.276;2022-07-21T09:12:03;24.80;61.80
19947;DHT22;10135;50.702;7.276;2022-07-21T09:14:09;24.90;62.00
19947;DHT22;10135;50.702;7.276;2022-07-21T09:16:11;24.90;62.00
19947;DHT22;10135;50.702;7.276;2022-07-21T09:18:15;24.90;61.90
19947;DHT22;10135;50.702;7.276;2022-07-21T09:20:25;25.00;61.90
19947;DHT22;10135;50.702;7.276;2022-07-21T09:22:27;25.00;61.90
19947;DHT22;10135;50.702;7.276;2022-07-21T09:24:31;25.00;61.70
19947;DHT22;10135;50.702;7.276;2022-07-21T09:29:10;25.10;61.60
19947;DHT22;10135;50.702;7.276;2022-07-21T09:31:11;25.00;61.20
19947;DHT22;10135;50.702;7.276;2022-07-21T09:35:34;25.10;61.10
19947;DHT22;10135;50.702;7.276;2022-07-21T09:37:37;25.00;61.20
19947;DHT22;10135;50.702;7.276;2022-07-21T09:39:46;25.10;61.20
19947;DHT22;10135;50.702;7.276;2022-07-21T09:41:51;25.20;60.80
19947;DHT22;10135;50.702;7.276;2022-07-21T09:43:57;25.20;60.90
19947;DHT22;10135;50.702;7.276;2022-07-21T09:46:03;25.20;60.40
19947;DHT22;10135;50.702;7.276;2022-07-21T09:48:04;25.20;60.50
19947;DHT22;10135;50.702;7.276;2022-07-21T09:50:09;25.20;60.60
19947;DHT22;10135;50.702;7.276;2022-07-21T09:52:31;25.20;60.60
19947;DHT22;10135;50.702;7.276;2022-07-21T09:54:33;25.20;60.30
19947;DHT22;10135;50.702;7.276;2022-07-21T09:56:42;25.20;60.60
19947;DHT22;10135;50.702;7.276;2022-07-21T09:58:48;25.20;60.30
19947;DHT22;10135;50.702;7.276;2022-07-21T10:00:50;25.20;60.40
19947;DHT22;10135;50.702;7.276;2022-07-21T10:02:53;25.30;60.60
19947;DHT22;10135;50.702;7.276;2022-07-21T10:04:58;25.30;60.40
19947;DHT22;10135;50.702;7.276;2022-07-21T10:07:01;25.30;60.10
19947;DHT22;10135;50.702;7.276;2022-07-21T10:09:04;25.40;60.30
19947;DHT22;10135;50.702;7.276;2022-07-21T10:11:08;25.40;60.10
19947;DHT22;10135;50.702;7.276;2022-07-21T10:13:09;25.50;60.00
19947;DHT22;10135;50.702;7.276;2022-07-21T10:15:10;25.50;59.90
19947;DHT22;10135;50.702;7.276;2022-07-21T10:17:11;25.50;59.80
19947;DHT22;10135;50.702;7.276;2022-07-21T10:19:23;25.60;59.80
19947;DHT22;10135;50.702;7.276;2022-07-21T10:23:41;25.70;59.70
19947;DHT22;10135;50.702;7.276;2022-07-21T10:25:43;25.80;59.50
19947;DHT22;10135;50.702;7.276;2022-07-21T10:30:11;25.90;59.30
19947;DHT22;10135;50.702;7.276;2022-07-21T10:32:16;25.90;59.40
19947;DHT22;10135;50.702;7.276;2022-07-21T10:34:34;26.00;59.40
19947;DHT22;10135;50.702;7.276;2022-07-21T10:38:37;26.10;59.30
19947;DHT22;10135;50.702;7.276;2022-07-21T10:40:38;26.30;59.30
19947;DHT22;10135;50.702;7.276;2022-07-21T10:42:39;26.40;59.10
19947;DHT22;10135;50.702;7.276;2022-07-21T10:44:42;26.50;58.90
19947;DHT22;10135;50.702;7.276;2022-07-21T10:49:09;26.60;58.30
19947;DHT22;10135;50.702;7.276;2022-07-21T10:51:16;26.60;58.30
19947;DHT22;10135;50.702;7.276;2022-07-21T10:53:18;26.70;58.00
19947;DHT22;10135;50.702;7.276;2022-07-21T10:55:20;26.70;57.80
19947;DHT22;10135;50.702;7.276;2022-07-21T10:57:29;26.70;57.70
19947;DHT22;10135;50.702;7.276;2022-07-21T11:02:26;26.70;57.20
19947;DHT22;10135;50.702;7.276;2022-07-21T11:04:28;26.70;56.80
19947;DHT22;10135;50.702;7.276;2022-07-21T11:06:32;26.70;57.30
19947;DHT22;10135;50.702;7.276;2022-07-21T11:08:41;26.70;57.00
19947;DHT22;10135;50.702;7.276;2022-07-21T11:10:50;26.70;57.00
19947;DHT22;10135;50.702;7.276;2022-07-21T11:12:55;26.70;57.00
19947;DHT22;10135;50.702;7.276;2022-07-21T11:14:57;26.70;56.90
19947;DHT22;10135;50.702;7.276;2022-07-21T11:16:58;26.70;57.00
19947;DHT22;10135;50.702;7.276;2022-07-21T11:19:01;26.70;57.00
19947;DHT22;10135;50.702;7.276;2022-07-21T11:23:14;26.70;56.30
19947;DHT22;10135;50.702;7.276;2022-07-21T11:25:15;26.80;56.80
19947;DHT22;10135;50.702;7.276;2022-07-21T11:27:21;26.80;56.80
19947;DHT22;10135;50.702;7.276;2022-07-21T11:29:24;26.80;56.40
19947;DHT22;10135;50.702;7.276;2022-07-21T11:31:25;26.80;56.60
19947;DHT22;10135;50.702;7.276;2022-07-21T11:33:26;26.80;56.40
19947;DHT22;10135;50.702;7.276;2022-07-21T11:35:27;26.80;56.30
19947;DHT22;10135;50.702;7.276;2022-07-21T11:39:35;26.80;56.00
19947;DHT22;10135;50.702;7.276;2022-07-21T11:41:38;26.80;56.20
19947;DHT22;10135;50.702;7.276;2022-07-21T11:43:44;26.80;56.10
19947;DHT22;10135;50.702;7.276;2022-07-21T11:45:53;26.80;56.10
19947;DHT22;10135;50.702;7.276;2022-07-21T11:47:54;26.80;55.50
19947;DHT22;10135;50.702;7.276;2022-07-21T11:49:57;26.80;55.90
19947;DHT22;10135;50.702;7.276;2022-07-21T11:52:04;26.80;55.90
19947;DHT22;10135;50.702;7.276;2022-07-21T11:54:19;26.80;55.40
19947;DHT22;10135;50.702;7.276;2022-07-21T11:56:21;26.80;55.30
19947;DHT22;10135;50.702;7.276;2022-07-21T11:58:21;26.80;56.30
19947;DHT22;10135;50.702;7.276;2022-07-21T12:00:24;26.80;55.60
19947;DHT22;10135;50.702;7.276;2022-07-21T12:02:29;26.80;55.40
19947;DHT22;10135;50.702;7.276;2022-07-21T12:04:40;26.80;55.40
19947;DHT22;10135;50.702;7.276;2022-07-21T12:07:01;26.80;55.30
19947;DHT22;10135;50.702;7.276;2022-07-21T12:09:03;26.70;55.30
19947;DHT22;10135;50.702;7.276;2022-07-21T12:11:08;26.70;55.30
19947;DHT22;10135;50.702;7.276;2022-07-21T12:13:11;26.70;55.10
19947;DHT22;10135;50.702;7.276;2022-07-21T12:17:35;26.60;54.80
19947;DHT22;10135;50.702;7.276;2022-07-21T12:19:37;26.60;54.80
19947;DHT22;10135;50.702;7.276;2022-07-21T12:21:44;26.50;55.30
19947;DHT22;10135;50.702;7.276;2022-07-21T12:23:45;26.40;55.40
19947;DHT22;10135;50.702;7.276;2022-07-21T12:25:46;26.40;55.50
19947;DHT22;10135;50.702;7.276;2022-07-21T12:27:47;26.30;55.60
19947;DHT22;10135;50.702;7.276;2022-07-21T12:29:50;26.20;55.60
19947;DHT22;10135;50.702;7.276;2022-07-21T12:31:51;26.10;55.70
19947;DHT22;10135;50.702;7.276;2022-07-21T12:33:53;26.00;55.80
19947;DHT22;10135;50.702;7.276;2022-07-21T12:35:59;25.90;56.00
19947;DHT22;10135;50.702;7.276;2022-07-21T12:38:10;25.80;56.10
19947;DHT22;10135;50.702;7.276;2022-07-21T12:40:13;25.70;56.30
19947;DHT22;10135;50.702;7.276;2022-07-21T12:42:34;25.60;56.20
19947;DHT22;10135;50.702;7.276;2022-07-21T12:44:37;25.60;56.60
19947;DHT22;10135;50.702;7.276;2022-07-21T12:46:38;25.40;56.40
19947;DHT22;10135;50.702;7.276;2022-07-21T12:48:41;25.30;56.50
19947;DHT22;10135;50.702;7.276;2022-07-21T12:50:56;25.30;56.70
19947;DHT22;10135;50.702;7.276;2022-07-21T12:53:01;25.20;56.80
19947;DHT22;10135;50.702;7.276;2022-07-21T12:55:03;25.10;56.90
19947;DHT22;10135;50.702;7.276;2022-07-21T12:57:04;25.10;57.10
19947;DHT22;10135;50.702;7.276;2022-07-21T12:59:05;25.00;57.20
19947;DHT22;10135;50.702;7.276;2022-07-21T13:01:06;25.00;57.30
19947;DHT22;10135;50.702;7.276;2022-07-21T13:03:07;24.90;57.40
19947;DHT22;10135;50.702;7.276;2022-07-21T13:05:08;24.90;57.50
19947;DHT22;10135;50.702;7.276;2022-07-21T13:07:09;24.90;57.70
19947;DHT22;10135;50.702;7.276;2022-07-21T13:09:10;24.80;57.80
19947;DHT22;10135;50.702;7.276;2022-07-21T13:11:12;24.80;57.90
19947;DHT22;10135;50.702;7.276;2022-07-21T13:13:15;24.80;58.10
19947;DHT22;10135;50.702;7.276;2022-07-21T13:17:16;24.70;58.10